createdAt,value
2022-12-17T00:02:43.037Z,6.76
2022-12-17T00:05:28.468Z,6.78
2022-12-17T00:08:17.470Z,6.77
2022-12-17T00:11:03.403Z,6.78
2022-12-17T00:13:50.614Z,6.82
2022-12-17T00:16:37.536Z,6.80
2022-12-17T00:19:23.245Z,6.79
2022-12-17T00:22:08.830Z,6.81
2022-12-17T00:24:56.379Z,6.79
2022-12-17T00:27:42.126Z,6.77
2022-12-17T00:30:29.958Z,6.75
2022-12-17T00:33:15.728Z,6.73
2022-12-17T00:36:01.652Z,6.76
2022-12-17T00:38:47.782Z,6.73
2022-12-17T00:41:33.291Z,6.72
2022-12-17T00:44:22.250Z,6.71
2022-12-17T00:47:09.697Z,6.71
2022-12-17T00:49:56.450Z,6.69
2022-12-17T00:52:41.946Z,6.70
2022-12-17T00:55:42.684Z,6.70
2022-12-17T00:58:28.202Z,6.70
2022-12-17T01:01:17.754Z,6.73
2022-12-17T01:04:05.286Z,6.76
2022-12-17T01:06:51.180Z,6.76
2022-12-17T01:09:37.682Z,6.80
2022-12-17T01:12:23.891Z,6.84
2022-12-17T01:15:10.021Z,6.86
2022-12-17T01:17:56.188Z,6.88
2022-12-17T01:20:44.126Z,6.88
2022-12-17T01:23:30.345Z,6.89
2022-12-17T01:26:16.926Z,6.90
2022-12-17T01:29:02.599Z,6.89
2022-12-17T01:31:48.407Z,6.87
2022-12-17T01:34:33.719Z,6.84
2022-12-17T01:37:20.736Z,6.84
2022-12-17T01:40:06.178Z,6.84
2022-12-17T01:42:57.307Z,6.81
2022-12-17T01:45:44.340Z,6.82
2022-12-17T01:48:33.849Z,6.79
2022-12-17T01:51:20.990Z,6.77
2022-12-17T01:54:10.017Z,6.75
2022-12-17T01:56:59.404Z,6.74
2022-12-17T01:59:55.534Z,6.71
2022-12-17T02:02:41.596Z,6.71
2022-12-17T02:05:27.192Z,6.73
2022-12-17T02:08:22.460Z,6.70
2022-12-17T02:11:16.243Z,6.69
2022-12-17T02:14:14.994Z,6.67
2022-12-17T02:17:08.580Z,6.68
2022-12-17T02:20:01.923Z,6.63
2022-12-17T02:23:06.859Z,6.62
2022-12-17T02:26:01.868Z,6.62
2022-12-17T02:28:50.230Z,6.64
2022-12-17T02:31:36.173Z,6.64
2022-12-17T02:34:21.891Z,6.67
2022-12-17T02:37:22.135Z,6.72
2022-12-17T02:40:08.171Z,6.77
2022-12-17T02:42:54.630Z,6.81
2022-12-17T02:45:39.389Z,6.86
2022-12-17T02:48:27.129Z,6.87
2022-12-17T02:51:13.250Z,6.88
2022-12-17T02:54:02.313Z,6.91
2022-12-17T02:56:48.178Z,6.91
2022-12-17T02:59:34.693Z,6.93
2022-12-17T03:02:22.123Z,6.93
2022-12-17T03:05:35.542Z,6.96
2022-12-17T03:08:13.030Z,6.96
2022-12-17T03:10:58.219Z,6.95
2022-12-17T03:13:44.833Z,6.96
2022-12-17T03:16:37.425Z,6.93
2022-12-17T03:19:25.005Z,6.95
2022-12-17T03:22:10.370Z,6.97
2022-12-17T03:24:55.534Z,7.01
2022-12-17T03:27:40.710Z,7.03
2022-12-17T03:30:26.934Z,7.06
2022-12-17T03:33:12.667Z,7.09
2022-12-17T03:35:59.698Z,7.13
2022-12-17T03:38:44.912Z,7.16
2022-12-17T03:41:30.757Z,7.22
2022-12-17T03:44:15.889Z,7.24
2022-12-17T03:47:01.090Z,7.26
2022-12-17T03:49:46.639Z,7.29
2022-12-17T03:52:35.628Z,7.31
2022-12-17T03:55:21.008Z,7.37
2022-12-17T03:58:06.324Z,7.37
2022-12-17T04:00:51.510Z,7.43
2022-12-17T04:03:37.150Z,7.42
2022-12-17T04:06:23.539Z,7.47
2022-12-17T04:09:10.653Z,7.46
2022-12-17T04:11:56.049Z,7.43
2022-12-17T04:14:41.313Z,7.44
2022-12-17T04:17:26.716Z,7.43
2022-12-17T04:20:11.022Z,7.44
2022-12-17T04:22:56.835Z,7.45
2022-12-17T04:25:46.397Z,7.49
2022-12-17T04:28:31.702Z,7.52
2022-12-17T04:31:16.861Z,7.52
2022-12-17T04:34:02.119Z,7.52
2022-12-17T04:36:47.751Z,7.52
2022-12-17T04:39:37.697Z,7.49
2022-12-17T04:42:24.627Z,7.53
2022-12-17T04:45:10.285Z,7.52
2022-12-17T04:47:58.152Z,7.54
2022-12-17T04:50:43.688Z,7.54
2022-12-17T04:53:29.214Z,7.55
2022-12-17T04:56:14.445Z,7.57
2022-12-17T04:59:01.355Z,7.60
2022-12-17T05:01:46.684Z,7.60
2022-12-17T05:04:32.383Z,7.61
2022-12-17T05:07:17.600Z,7.60
2022-12-17T05:10:03.338Z,7.60
2022-12-17T05:12:49.197Z,7.62
2022-12-17T05:15:35.933Z,7.60
2022-12-17T05:18:25.829Z,7.59
2022-12-17T05:21:11.140Z,7.59
2022-12-17T05:23:56.742Z,7.58
2022-12-17T05:26:44.380Z,7.56
2022-12-17T05:29:30.785Z,7.49
2022-12-17T05:32:17.610Z,7.47
2022-12-17T05:35:03.068Z,7.43
2022-12-17T05:37:48.568Z,7.41
2022-12-17T05:40:34.326Z,7.40
2022-12-17T05:43:21.589Z,7.40
2022-12-17T05:46:07.344Z,7.40
2022-12-17T05:48:54.115Z,7.39
2022-12-17T05:51:40.439Z,7.36
2022-12-17T05:54:26.469Z,7.36
2022-12-17T05:57:12.214Z,7.36
2022-12-17T05:59:57.373Z,7.36
2022-12-17T06:02:43.146Z,7.36
2022-12-17T06:05:30.365Z,7.33
2022-12-17T06:08:21.914Z,7.35
2022-12-17T06:11:07.528Z,7.37
2022-12-17T06:13:52.774Z,7.38
2022-12-17T06:16:38.631Z,7.40
2022-12-17T06:19:23.827Z,7.44
2022-12-17T06:22:10.843Z,7.48
2022-12-17T06:24:56.435Z,7.51
2022-12-17T06:27:41.514Z,7.54
2022-12-17T06:30:28.016Z,7.57
2022-12-17T06:33:22.451Z,7.59
2022-12-17T06:36:07.792Z,7.65
2022-12-17T06:38:54.740Z,7.71
2022-12-17T06:41:39.966Z,7.75
2022-12-17T06:44:25.547Z,7.81
2022-12-17T06:47:10.835Z,7.83
2022-12-17T06:50:01.051Z,7.87
2022-12-17T06:52:46.744Z,7.86
2022-12-17T06:55:33.511Z,7.86
2022-12-17T06:58:19.340Z,7.86
2022-12-17T07:01:04.572Z,7.85
2022-12-17T07:03:50.353Z,7.86
2022-12-17T07:06:35.345Z,7.84
2022-12-17T07:09:20.500Z,7.84
2022-12-17T07:12:07.530Z,7.85
2022-12-17T07:14:53.207Z,7.85
2022-12-17T07:17:42.569Z,7.86
2022-12-17T07:20:29.320Z,7.85
2022-12-17T07:23:17.732Z,7.85
2022-12-17T07:26:03.718Z,7.84
2022-12-17T07:28:51.054Z,7.84
2022-12-17T07:31:37.169Z,7.86
2022-12-17T07:34:22.512Z,7.87
2022-12-17T07:40:11.485Z,7.88
2022-12-17T07:42:58.408Z,7.91
2022-12-17T07:45:45.524Z,7.91
2022-12-17T07:48:31.317Z,7.94
2022-12-17T07:51:17.031Z,7.95
2022-12-17T07:57:02.274Z,7.94
2022-12-17T07:59:47.565Z,7.95
2022-12-17T08:02:43.127Z,7.96
2022-12-17T08:05:29.096Z,7.97
2022-12-17T08:08:14.791Z,7.96
2022-12-17T08:11:03.620Z,7.96
2022-12-17T08:13:48.876Z,7.92
2022-12-17T08:16:34.282Z,7.91
2022-12-17T08:19:22.308Z,7.93
2022-12-17T08:22:08.647Z,7.92
2022-12-17T08:24:54.291Z,7.92
2022-12-17T08:27:40.113Z,7.91
2022-12-17T08:30:26.743Z,7.89
2022-12-17T08:33:12.275Z,7.89
2022-12-17T08:35:59.743Z,7.88
2022-12-17T08:38:47.573Z,7.86
2022-12-17T08:41:41.771Z,7.87
2022-12-17T08:44:27.548Z,7.87
2022-12-17T08:47:13.332Z,7.88
2022-12-17T08:49:58.927Z,7.88
2022-12-17T08:52:46.004Z,7.88
2022-12-17T08:55:31.710Z,7.90
2022-12-17T08:58:18.319Z,7.93
2022-12-17T09:01:03.963Z,7.98
2022-12-17T09:03:49.940Z,8.00
2022-12-17T09:06:39.092Z,8.08
2022-12-17T09:09:35.809Z,8.12
2022-12-17T09:12:22.405Z,8.14
2022-12-17T09:15:07.852Z,8.20
2022-12-17T09:17:53.935Z,8.25
2022-12-17T09:20:39.742Z,8.30
2022-12-17T09:23:25.994Z,8.35
2022-12-17T09:26:15.462Z,8.38
2022-12-17T09:29:01.880Z,8.44
2022-12-17T09:31:49.771Z,8.50
2022-12-17T09:34:35.873Z,8.58
2022-12-17T09:37:21.753Z,8.65
2022-12-17T09:40:07.528Z,8.74
2022-12-17T09:43:00.509Z,8.84
2022-12-17T09:45:51.943Z,8.94
2022-12-17T09:48:44.329Z,9.05
2022-12-17T09:51:40.409Z,9.13
2022-12-17T09:54:42.972Z,9.17
2022-12-17T09:57:46.127Z,9.23
2022-12-17T10:00:39.904Z,9.29
2022-12-17T10:03:31.231Z,9.32
2022-12-17T10:06:23.459Z,9.40
2022-12-17T10:09:12.517Z,9.48
2022-12-17T10:12:01.493Z,9.55
2022-12-17T10:14:47.326Z,9.63
2022-12-17T10:17:36.726Z,9.71
2022-12-17T10:20:33.483Z,9.78
2022-12-17T10:23:19.286Z,9.89
2022-12-17T10:26:10.550Z,10.03
2022-12-17T10:28:57.318Z,10.10
2022-12-17T10:31:47.917Z,10.17
2022-12-17T10:34:45.730Z,10.29
2022-12-17T10:37:39.090Z,10.39
2022-12-17T10:40:45.154Z,10.44
2022-12-17T10:43:47.123Z,10.50
2022-12-17T10:49:45.537Z,10.56
2022-12-17T10:52:43.028Z,10.58
2022-12-17T10:55:42.129Z,10.64
2022-12-17T11:01:39.598Z,10.70
2022-12-17T11:04:48.750Z,10.71
2022-12-17T11:07:41.696Z,10.73
2022-12-17T11:10:34.851Z,10.71
2022-12-17T11:13:25.012Z,10.73
2022-12-17T11:16:13.181Z,10.74
2022-12-17T11:19:09.758Z,10.76
2022-12-17T11:22:02.937Z,10.80
2022-12-17T11:24:58.016Z,10.82
2022-12-17T11:30:49.295Z,10.94
2022-12-17T11:33:40.319Z,11.00
2022-12-17T11:36:38.730Z,11.09
2022-12-17T11:39:48.847Z,11.18
2022-12-17T11:42:43.490Z,11.27
2022-12-17T11:45:45.949Z,11.34
2022-12-17T11:55:22.575Z,11.47
2022-12-17T12:05:26.021Z,11.50
2022-12-17T12:11:33.103Z,11.56
2022-12-17T12:25:41.778Z,11.66
2022-12-17T12:32:20.986Z,11.72
2022-12-17T12:35:14.818Z,11.77
2022-12-17T12:38:01.431Z,11.85
2022-12-17T12:40:54.979Z,11.89
2022-12-17T12:43:44.143Z,11.91
2022-12-17T12:46:37.295Z,11.90
2022-12-17T12:49:35.545Z,11.85
2022-12-17T12:55:31.945Z,11.83
2022-12-17T12:58:23.206Z,11.82
2022-12-17T13:01:12.486Z,11.83
2022-12-17T13:04:10.448Z,11.88
2022-12-17T13:07:03.928Z,11.89
2022-12-17T13:09:41.117Z,11.94
2022-12-17T13:12:28.770Z,11.99
2022-12-17T13:15:10.462Z,12.01
2022-12-17T13:17:44.083Z,12.03
2022-12-17T13:20:34.618Z,12.07
2022-12-17T13:23:26.538Z,12.08
2022-12-17T13:26:38.751Z,12.17
2022-12-17T13:32:31.334Z,12.22
2022-12-17T13:35:15.328Z,12.25
2022-12-17T13:37:56.994Z,12.26
2022-12-17T13:44:07.524Z,12.25
2022-12-17T13:46:47.602Z,12.25
2022-12-17T13:49:21.006Z,12.28
2022-12-17T14:01:13.764Z,12.31
2022-12-17T14:06:37.618Z,12.34
2022-12-17T14:09:09.994Z,12.32
2022-12-17T14:17:46.510Z,12.44
2022-12-17T14:20:28.095Z,12.50
2022-12-17T14:23:02.796Z,12.54
2022-12-17T14:25:35.704Z,12.57
2022-12-17T14:28:06.894Z,12.61
2022-12-17T14:30:46.297Z,12.66
2022-12-17T14:33:29.249Z,12.69
2022-12-17T14:35:59.015Z,12.75
2022-12-17T14:38:38.307Z,12.77
2022-12-17T14:41:34.356Z,12.78
2022-12-17T14:44:03.972Z,12.75
2022-12-17T14:46:35.943Z,12.75
2022-12-17T14:49:17.657Z,12.67
2022-12-17T14:51:46.102Z,12.60
2022-12-17T14:54:20.381Z,12.56
2022-12-17T14:56:50.777Z,12.48
2022-12-17T14:59:27.963Z,12.40
2022-12-17T15:01:57.254Z,12.31
2022-12-17T15:04:29.118Z,12.21
2022-12-17T15:06:57.910Z,12.14
2022-12-17T15:09:26.389Z,12.11
2022-12-17T15:11:55.194Z,12.06
2022-12-17T15:14:24.477Z,12.01
2022-12-17T15:16:53.203Z,11.96
2022-12-17T15:19:25.078Z,11.96
2022-12-17T15:21:58.266Z,12.00
2022-12-17T15:24:27.928Z,12.08
2022-12-17T15:26:58.998Z,12.17
2022-12-17T15:29:27.313Z,12.23
2022-12-17T15:32:29.406Z,12.28
2022-12-17T15:34:58.068Z,12.28
2022-12-17T15:37:31.019Z,12.28
2022-12-17T15:40:00.391Z,12.24
2022-12-17T15:42:46.708Z,12.19
2022-12-17T15:45:15.755Z,12.10
2022-12-17T15:48:04.034Z,12.04
2022-12-17T15:53:17.669Z,11.88
2022-12-17T15:55:45.823Z,11.77
2022-12-17T15:58:28.258Z,11.66
2022-12-17T16:04:11.983Z,11.37
2022-12-17T16:06:48.165Z,11.20
2022-12-17T16:09:18.405Z,11.04
2022-12-17T16:32:53.253Z,9.90
2022-12-17T17:00:04.010Z,9.01
2022-12-17T17:02:33.200Z,9.01
2022-12-17T17:05:02.399Z,8.97
2022-12-17T17:07:30.880Z,8.94
2022-12-17T17:09:59.130Z,8.91
2022-12-17T17:12:27.962Z,8.86
2022-12-17T17:14:56.048Z,8.81
2022-12-17T17:17:54.375Z,8.79
2022-12-17T17:20:16.131Z,8.76
2022-12-17T17:22:46.533Z,8.72
2022-12-17T17:25:14.738Z,8.68
2022-12-17T17:27:43.029Z,8.65
2022-12-17T17:30:12.475Z,8.63
2022-12-17T17:32:42.480Z,8.57
2022-12-17T17:35:11.083Z,8.55
2022-12-17T17:37:39.752Z,8.52
2022-12-17T17:40:09.890Z,8.49
2022-12-17T17:42:38.085Z,8.46
2022-12-17T17:45:08.840Z,8.43
2022-12-17T17:47:36.986Z,8.38
2022-12-17T17:50:07.124Z,8.37
2022-12-17T17:52:35.680Z,8.35
2022-12-17T17:55:03.925Z,8.30
2022-12-17T17:57:32.166Z,8.27
2022-12-17T18:00:00.384Z,8.24
2022-12-17T18:02:28.772Z,8.22
2022-12-17T18:04:59.896Z,8.14
2022-12-17T18:07:29.915Z,8.09
2022-12-17T18:09:59.873Z,8.09
2022-12-17T18:12:45.440Z,8.02
2022-12-17T18:15:15.742Z,7.93
2022-12-17T18:17:45.449Z,7.86
2022-12-17T18:20:14.233Z,7.79
2022-12-17T18:22:46.445Z,7.71
2022-12-17T18:25:16.915Z,7.67
2022-12-17T18:27:45.744Z,7.63
2022-12-17T18:30:16.572Z,7.57
2022-12-17T18:32:45.168Z,7.54
2022-12-17T18:35:13.563Z,7.50
2022-12-17T18:37:43.443Z,7.44
2022-12-17T18:40:12.593Z,7.37
2022-12-17T18:42:58.619Z,7.33
2022-12-17T18:45:26.829Z,7.28
2022-12-17T18:47:54.956Z,7.26
2022-12-17T18:50:23.201Z,7.26
2022-12-17T18:52:53.314Z,7.23
2022-12-17T18:55:21.711Z,7.19
2022-12-17T18:57:49.804Z,7.20
2022-12-17T19:00:18.363Z,7.16
2022-12-17T19:02:46.598Z,7.14
2022-12-17T19:05:15.038Z,7.14
2022-12-17T19:07:43.766Z,7.12
2022-12-17T19:10:14.180Z,7.15
2022-12-17T19:12:42.409Z,7.16
2022-12-17T19:15:12.044Z,7.17
2022-12-17T19:17:40.089Z,7.17
2022-12-17T19:20:09.412Z,7.21
2022-12-17T19:22:37.541Z,7.24
2022-12-17T19:25:06.188Z,7.24
2022-12-17T19:27:35.850Z,7.28
2022-12-17T19:30:03.868Z,7.30
2022-12-17T19:32:32.246Z,7.30
2022-12-17T19:35:00.802Z,7.31
2022-12-17T19:37:28.875Z,7.31
2022-12-17T19:39:57.190Z,7.31
2022-12-17T19:42:33.420Z,7.28
2022-12-17T19:45:07.290Z,7.29
2022-12-17T19:47:35.366Z,7.26
2022-12-17T19:50:03.738Z,7.23
2022-12-17T19:52:31.818Z,7.23
2022-12-17T19:54:59.967Z,7.21
2022-12-17T19:57:27.969Z,7.20
2022-12-17T19:59:56.012Z,7.20
2022-12-17T20:02:30.988Z,7.20
2022-12-17T20:05:00.505Z,7.21
2022-12-17T20:07:28.565Z,7.22
2022-12-17T20:09:56.765Z,7.22
2022-12-17T20:12:24.844Z,7.20
2022-12-17T20:14:52.982Z,7.21
2022-12-17T20:17:21.493Z,7.21
2022-12-17T20:19:53.421Z,7.23
2022-12-17T20:22:23.251Z,7.20
2022-12-17T20:24:51.666Z,7.22
2022-12-17T20:27:19.797Z,7.21
2022-12-17T20:29:48.156Z,7.24
2022-12-17T20:32:19.572Z,7.21
2022-12-17T20:34:48.000Z,7.18
2022-12-17T20:37:17.603Z,7.20
2022-12-17T20:39:45.706Z,7.22
2022-12-17T20:42:13.851Z,7.23
2022-12-17T20:44:42.044Z,7.22
2022-12-17T20:47:10.122Z,7.23
2022-12-17T20:49:38.307Z,7.24
2022-12-17T20:52:06.564Z,7.23
2022-12-17T20:54:36.448Z,7.25
2022-12-17T20:57:04.643Z,7.26
2022-12-17T20:59:33.177Z,7.26
2022-12-17T21:02:01.366Z,7.29
2022-12-17T21:04:29.459Z,7.28
2022-12-17T21:06:57.833Z,7.28
2022-12-17T21:09:26.014Z,7.28
2022-12-17T21:11:55.681Z,7.30
2022-12-17T21:14:23.780Z,7.29
2022-12-17T21:16:51.922Z,7.30
2022-12-17T21:19:21.030Z,7.32
2022-12-17T21:21:52.188Z,7.32
2022-12-17T21:24:20.361Z,7.33
2022-12-17T21:26:48.543Z,7.35
2022-12-17T21:29:18.545Z,7.36
2022-12-17T21:31:48.483Z,7.36
2022-12-17T21:34:22.678Z,7.39
2022-12-17T21:36:51.575Z,7.38
2022-12-17T21:39:20.992Z,7.35
2022-12-17T21:42:10.881Z,7.37
2022-12-17T21:44:40.569Z,7.36
2022-12-17T21:47:11.526Z,7.34
2022-12-17T21:49:40.587Z,7.35
2022-12-17T21:52:10.335Z,7.34
2022-12-17T21:54:39.565Z,7.33
2022-12-17T21:57:08.882Z,7.32
2022-12-17T21:59:55.545Z,7.30
2022-12-17T22:02:26.582Z,7.29
2022-12-17T22:10:46.460Z,7.28
2022-12-17T22:13:39.440Z,7.30
2022-12-17T22:16:10.296Z,7.28
2022-12-17T22:18:39.313Z,7.25
2022-12-17T22:21:08.092Z,7.28
2022-12-17T22:23:38.214Z,7.29
2022-12-17T22:26:11.058Z,7.34
2022-12-17T22:28:39.659Z,7.37
2022-12-17T22:31:30.868Z,7.40
2022-12-17T22:34:38.646Z,7.42
2022-12-17T22:39:58.562Z,7.46
2022-12-17T22:44:30.853Z,7.49
2022-12-17T22:44:42.077Z,7.53
2022-12-17T22:45:32.934Z,7.51
2022-12-17T22:48:06.481Z,7.53
2022-12-17T22:50:37.809Z,7.53
2022-12-17T22:53:21.181Z,7.52
2022-12-17T22:55:54.719Z,7.55
2022-12-17T22:58:25.112Z,7.54
2022-12-17T23:01:06.472Z,7.54
2022-12-17T23:07:30.061Z,7.53
2022-12-17T23:13:21.039Z,7.46
2022-12-17T23:15:49.804Z,7.48
2022-12-17T23:18:19.390Z,7.47
2022-12-17T23:20:48.481Z,7.45
2022-12-17T23:23:17.176Z,7.45
2022-12-17T23:25:45.665Z,7.42
2022-12-17T23:28:15.566Z,7.44
2022-12-17T23:30:43.638Z,7.42
2022-12-17T23:33:11.807Z,7.42
2022-12-17T23:35:40.161Z,7.41
2022-12-17T23:38:08.336Z,7.42
2022-12-17T23:40:36.728Z,7.42
2022-12-17T23:43:05.053Z,7.40
2022-12-17T23:45:34.553Z,7.41
2022-12-17T23:48:02.929Z,7.40
2022-12-17T23:50:31.022Z,7.44
2022-12-17T23:52:59.544Z,7.46
2022-12-17T23:55:28.160Z,7.46
2022-12-17T23:57:56.939Z,7.52
